Time;durP1;ratioP1;P1;durP2;ratioP2;P2;SDS_P1;SDS_P2;PMS_P1;PMS_P2;Temp;Humidity;BMP_temperature;BMP_pressure;BME280_temperature;BME280_humidity;BME280_pressure;Samples;Min_cycle;Max_cycle;Signal;HPM_P1;HPM_P2
2023/10/09 00:03:00;;;;;;;38.97;24.25;;;;;;;;;;4990112;28;20190;-67
2023/10/09 00:05:32;;;;;;;41.60;24.58;;;;;;;;;;4990327;28;20208;-66
2023/10/09 00:07:58;;;;;;;47.03;24.02;;;;;;;;;;4988260;28;20216;-65
2023/10/09 00:10:25;;;;;;;40.20;24.63;;;;;;;;;;4991867;28;20204;-67
2023/10/09 00:12:50;;;;;;;41.50;23.48;;;;;;;;;;4993751;28;20191;-67
2023/10/09 00:15:17;;;;;;;42.65;24.50;;;;;;;;;;4987707;28;20261;-67
2023/10/09 00:17:46;;;;;;;42.85;24.13;;;;;;;;;;4994021;28;20171;-66
2023/10/09 00:20:20;;;;;;;41.50;23.88;;;;;;;;;;4994379;28;20175;-67
2023/10/09 00:22:46;;;;;;;37.42;23.85;;;;;;;;;;4993376;28;20187;-67
2023/10/09 00:25:11;;;;;;;33.50;22.27;;;;;;;;;;4995596;28;20214;-66
2023/10/09 00:27:46;;;;;;;38.22;21.10;;;;;;;;;;4996207;28;20171;-67
2023/10/09 00:30:18;;;;;;;38.58;22.05;;;;;;;;;;4994754;28;20171;-67
2023/10/09 00:33:01;;;;;;;36.00;20.65;;;;;;;;;;4994044;28;20557;-67
2023/10/09 00:35:36;;;;;;;30.05;20.10;;;;;;;;;;4995034;28;20202;-67
2023/10/09 00:38:08;;;;;;;32.40;20.17;;;;;;;;;;4996223;28;20179;-67
2023/10/09 00:40:35;;;;;;;31.90;20.75;;;;;;;;;;4995545;28;20188;-66
2023/10/09 00:43:06;;;;;;;28.95;18.08;;;;;;;;;;4991908;28;20187;-65
2023/10/09 00:45:32;;;;;;;32.58;18.98;;;;;;;;;;4994106;28;20207;-64
2023/10/09 00:47:59;;;;;;;28.95;18.35;;;;;;;;;;4995449;28;20222;-65
2023/10/09 00:50:25;;;;;;;26.83;17.85;;;;;;;;;;4995787;28;20167;-65
2023/10/09 00:53:01;;;;;;;28.67;17.98;;;;;;;;;;4996100;28;20278;-66
2023/10/09 00:58:09;;;;;;;23.80;15.40;;;;;;;;;;4993692;28;20179;-66
2023/10/09 01:03:18;;;;;;;24.13;16.30;;;;;;;;;;4987415;28;20214;-66
2023/10/09 01:05:51;;;;;;;24.98;15.85;;;;;;;;;;4990066;28;20705;-66
2023/10/09 01:08:25;;;;;;;26.52;16.25;;;;;;;;;;4994821;28;20264;-67
2023/10/09 01:10:56;;;;;;;23.42;15.30;;;;;;;;;;4992911;28;20539;-66
2023/10/09 01:13:27;;;;;;;27.52;16.15;;;;;;;;;;4995196;28;20168;-66
2023/10/09 01:15:58;;;;;;;24.45;14.23;;;;;;;;;;4995903;28;20206;-66
2023/10/09 01:18:31;;;;;;;20.63;14.20;;;;;;;;;;4991904;28;20176;-67
2023/10/09 01:20:57;;;;;;;22.23;12.93;;;;;;;;;;5010097;28;20585;-66
2023/10/09 01:23:23;;;;;;;21.30;13.65;;;;;;;;;;4992381;28;20175;-65
2023/10/09 01:25:49;;;;;;;23.55;12.75;;;;;;;;;;5006615;28;20219;-65
2023/10/09 01:28:15;;;;;;;18.67;12.45;;;;;;;;;;4993113;28;20180;-66
2023/10/09 01:30:41;;;;;;;18.92;12.48;;;;;;;;;;4994375;28;20271;-66
2023/10/09 01:33:17;;;;;;;22.60;13.18;;;;;;;;;;4994144;28;20596;-65
2023/10/09 01:35:48;;;;;;;18.55;12.20;;;;;;;;;;4992703;28;20199;-66
2023/10/09 01:38:15;;;;;;;21.15;11.43;;;;;;;;;;4994333;28;20211;-65
2023/10/09 01:40:40;;;;;;;16.88;10.75;;;;;;;;;;4996416;28;20168;-66
2023/10/09 01:43:09;;;;;;;15.93;10.95;;;;;;;;;;4991564;28;20182;-65
2023/10/09 01:45:41;;;;;;;21.50;11.98;;;;;;;;;;4992208;28;20224;-66
2023/10/09 01:48:08;;;;;;;16.05;11.13;;;;;;;;;;4987712;28;20176;-66
2023/10/09 01:50:35;;;;;;;18.48;11.30;;;;;;;;;;4992560;28;20182;-66
2023/10/09 01:53:05;;;;;;;16.75;10.73;;;;;;;;;;4994442;28;20176;-66
2023/10/09 01:55:40;;;;;;;16.92;10.85;;;;;;;;;;4993503;28;20811;-66
2023/10/09 01:58:16;;;;;;;16.15;11.15;;;;;;;;;;4992916;28;20202;-67
2023/10/09 02:00:43;;;;;;;17.40;10.82;;;;;;;;;;4991632;28;20237;-66
2023/10/09 02:03:13;;;;;;;19.63;11.52;;;;;;;;;;4993188;28;20319;-65
2023/10/09 02:05:39;;;;;;;18.25;11.52;;;;;;;;;;4995799;28;20606;-67
2023/10/09 02:08:05;;;;;;;18.85;10.35;;;;;;;;;;4990680;28;20176;-66
2023/10/09 02:10:31;;;;;;;17.80;9.93;;;;;;;;;;4994720;28;20675;-65
2023/10/09 02:12:57;;;;;;;15.77;10.73;;;;;;;;;;4995285;28;20227;-66
2023/10/09 02:15:41;;;;;;;13.15;10.15;;;;;;;;;;4989697;28;20220;-67
2023/10/09 02:20:48;;;;;;;16.67;11.25;;;;;;;;;;4993462;28;20237;-66
2023/10/09 02:23:13;;;;;;;19.90;12.27;;;;;;;;;;4995410;28;20604;-66
2023/10/09 02:25:43;;;;;;;17.73;11.75;;;;;;;;;;5016408;23;20229;-69
2023/10/09 02:28:17;;;;;;;20.20;12.05;;;;;;;;;;5007216;28;20258;-66
2023/10/09 02:30:42;;;;;;;17.48;11.65;;;;;;;;;;5013030;28;20213;-66
2023/10/09 02:33:09;;;;;;;24.50;13.15;;;;;;;;;;5012555;28;20638;-66
2023/10/09 02:35:42;;;;;;;19.33;11.27;;;;;;;;;;5007929;28;20211;-67
2023/10/09 02:38:14;;;;;;;19.95;11.10;;;;;;;;;;5008733;28;20203;-67
2023/10/09 02:40:41;;;;;;;18.25;11.20;;;;;;;;;;5009357;28;20663;-67
2023/10/09 02:43:12;;;;;;;17.27;11.02;;;;;;;;;;5015171;28;20261;-68
2023/10/09 02:45:49;;;;;;;19.55;10.80;;;;;;;;;;5013565;28;20288;-68
2023/10/09 02:48:15;;;;;;;18.27;11.13;;;;;;;;;;5018641;28;20179;-68
2023/10/09 02:50:44;;;;;;;16.30;11.52;;;;;;;;;;5017867;28;20189;-67
2023/10/09 02:53:18;;;;;;;19.85;12.48;;;;;;;;;;5014603;28;20174;-67
2023/10/09 02:55:53;;;;;;;22.92;11.07;;;;;;;;;;5017032;28;20209;-67
2023/10/09 02:58:21;;;;;;;15.38;10.00;;;;;;;;;;5015307;28;20175;-68
2023/10/09 03:00:47;;;;;;;24.83;11.65;;;;;;;;;;5009642;28;20186;-67
2023/10/09 03:03:16;;;;;;;19.30;11.68;;;;;;;;;;5007111;28;20198;-68
2023/10/09 03:05:43;;;;;;;22.90;12.68;;;;;;;;;;5010819;28;20719;-68
2023/10/09 03:08:12;;;;;;;17.85;9.98;;;;;;;;;;5004783;28;20182;-67
2023/10/09 03:10:38;;;;;;;20.13;10.52;;;;;;;;;;5007810;28;20175;-67
2023/10/09 03:13:05;;;;;;;18.95;11.15;;;;;;;;;;5009826;28;20258;-68
2023/10/09 03:15:35;;;;;;;22.25;10.75;;;;;;;;;;5008586;28;20202;-66
2023/10/09 03:18:00;;;;;;;17.83;10.88;;;;;;;;;;5006027;28;20213;-68
2023/10/09 03:20:26;;;;;;;16.58;10.50;;;;;;;;;;5008201;28;20300;-67
2023/10/09 03:22:54;;;;;;;17.88;10.85;;;;;;;;;;5007783;28;20187;-67
2023/10/09 03:25:19;;;;;;;17.05;11.07;;;;;;;;;;5003412;28;20202;-67
2023/10/09 03:27:47;;;;;;;16.65;11.80;;;;;;;;;;5009712;28;20273;-67
2023/10/09 03:30:16;;;;;;;25.13;12.10;;;;;;;;;;5004224;28;20245;-67
2023/10/09 03:32:42;;;;;;;17.10;10.70;;;;;;;;;;5007644;28;20182;-66
2023/10/09 03:35:09;;;;;;;19.88;11.20;;;;;;;;;;5009317;28;20286;-66
2023/10/09 03:37:35;;;;;;;16.35;9.48;;;;;;;;;;5002685;28;20187;-66
2023/10/09 03:40:00;;;;;;;16.60;10.32;;;;;;;;;;5007956;28;20183;-67
2023/10/09 03:42:26;;;;;;;18.23;10.35;;;;;;;;;;5008909;28;20245;-67
2023/10/09 03:44:57;;;;;;;15.27;10.38;;;;;;;;;;5009825;28;20590;-67
2023/10/09 03:47:23;;;;;;;15.70;10.07;;;;;;;;;;5008230;28;20175;-67
2023/10/09 03:49:51;;;;;;;25.67;9.98;;;;;;;;;;5005864;28;20680;-68
2023/10/09 03:52:17;;;;;;;18.77;10.75;;;;;;;;;;5004110;28;20543;-67
2023/10/09 03:54:46;;;;;;;17.30;9.98;;;;;;;;;;5003995;28;20209;-68
2023/10/09 03:57:11;;;;;;;19.60;10.43;;;;;;;;;;5002232;28;20446;-68
2023/10/09 03:59:37;;;;;;;17.80;10.25;;;;;;;;;;5006986;28;20186;-69
2023/10/09 04:02:04;;;;;;;16.85;9.30;;;;;;;;;;5008938;28;20199;-67
2023/10/09 04:04:32;;;;;;;18.58;10.52;;;;;;;;;;5007239;28;20205;-68
2023/10/09 04:06:57;;;;;;;17.42;9.00;;;;;;;;;;5006319;28;20251;-67
2023/10/09 04:11:57;;;;;;;19.70;9.82;;;;;;;;;;5005715;28;20672;-67
2023/10/09 04:14:34;;;;;;;15.60;9.80;;;;;;;;;;5007568;28;20194;-67
2023/10/09 04:17:32;;;;;;;18.17;9.13;;;;;;;;;;5003062;28;20271;-68
2023/10/09 04:22:50;;;;;;;17.38;10.18;;;;;;;;;;5004184;28;20186;-68
2023/10/09 04:25:25;;;;;;;14.90;9.50;;;;;;;;;;5004686;28;20217;-68
2023/10/09 04:28:09;;;;;;;14.98;8.70;;;;;;;;;;5004490;28;20278;-68
2023/10/09 04:30:40;;;;;;;12.25;9.55;;;;;;;;;;5004769;28;20182;-67
2023/10/09 04:33:11;;;;;;;18.80;8.93;;;;;;;;;;5008050;28;20211;-67
2023/10/09 04:35:38;;;;;;;18.20;10.25;;;;;;;;;;5006051;28;20583;-68
2023/10/09 04:38:05;;;;;;;14.00;8.70;;;;;;;;;;5005220;28;20190;-67
2023/10/09 04:43:20;;;;;;;16.42;9.32;;;;;;;;;;5007072;28;20198;-66
2023/10/09 04:48:38;;;;;;;14.88;9.82;;;;;;;;;;5002830;28;20232;-68
2023/10/09 04:51:34;;;;;;;18.83;9.25;;;;;;;;;;5005738;28;20269;-68
2023/10/09 04:54:14;;;;;;;13.45;9.85;;;;;;;;;;5004886;28;20190;-68
2023/10/09 04:56:51;;;;;;;19.65;9.85;;;;;;;;;;5009784;28;20187;-66
2023/10/09 04:59:24;;;;;;;20.85;9.70;;;;;;;;;;5009563;28;20174;-67
2023/10/09 05:01:57;;;;;;;15.45;10.55;;;;;;;;;;5006441;28;20187;-67
2023/10/09 05:07:22;;;;;;;12.00;9.07;;;;;;;;;;5008037;28;20190;-67
2023/10/09 05:10:08;;;;;;;14.80;9.15;;;;;;;;;;5011875;28;20190;-66
2023/10/09 05:12:33;;;;;;;16.35;9.25;;;;;;;;;;5013489;28;20179;-68
2023/10/09 05:15:13;;;;;;;15.25;9.48;;;;;;;;;;5015553;28;20579;-68
2023/10/09 05:17:38;;;;;;;14.10;9.18;;;;;;;;;;5012290;28;20175;-67
2023/10/09 05:22:57;;;;;;;19.33;9.68;;;;;;;;;;5010966;28;20194;-67
2023/10/09 05:25:53;;;;;;;12.90;8.23;;;;;;;;;;5007891;28;20207;-68
2023/10/09 05:28:58;;;;;;;17.35;9.15;;;;;;;;;;5010129;28;20183;-68
2023/10/09 05:31:09;;;;;;;20.92;9.25;;;;;;;;;;5010946;28;20631;-66
2023/10/09 05:33:45;;;;;;;15.82;9.65;;;;;;;;;;5010494;28;20179;-67
2023/10/09 05:39:17;;;;;;;12.43;8.73;;;;;;;;;;5011052;28;20199;-67
2023/10/09 05:41:59;;;;;;;15.73;9.25;;;;;;;;;;5010145;28;20182;-67
2023/10/09 05:50:33;;;;;;;14.18;8.93;;;;;;;;;;5012258;28;20186;-67
2023/10/09 06:06:03;;;;;;;16.52;9.20;;;;;;;;;;5006921;28;20729;-67
2023/10/09 06:11:38;;;;;;;14.77;8.85;;;;;;;;;;5008068;28;20183;-67
2023/10/09 06:14:03;;;;;;;12.73;8.63;;;;;;;;;;5006556;28;20195;-67
2023/10/09 06:16:41;;;;;;;10.98;8.63;;;;;;;;;;5013246;28;20171;-67
2023/10/09 06:19:12;;;;;;;19.33;9.50;;;;;;;;;;5007793;28;20178;-67
2023/10/09 06:29:37;;;;;;;11.57;8.60;;;;;;;;;;5012102;28;20175;-67
2023/10/09 06:34:51;;;;;;;14.40;8.18;;;;;;;;;;5007800;28;20198;-67
2023/10/09 06:37:34;;;;;;;17.90;9.73;;;;;;;;;;5010379;28;20654;-66
2023/10/09 06:42:43;;;;;;;14.68;8.27;;;;;;;;;;5007145;28;20195;-67
2023/10/09 06:45:20;;;;;;;15.20;8.77;;;;;;;;;;5006356;28;20372;-66
2023/10/09 06:53:25;;;;;;;17.83;8.07;;;;;;;;;;5008748;28;20229;-67
2023/10/09 06:55:51;;;;;;;14.98;8.00;;;;;;;;;;5010439;28;20238;-67
2023/10/09 06:58:23;;;;;;;21.23;9.15;;;;;;;;;;5006220;28;20203;-67
2023/10/09 07:03:35;;;;;;;17.45;8.48;;;;;;;;;;5008745;28;20282;-67
2023/10/09 07:08:59;;;;;;;23.48;8.93;;;;;;;;;;5012038;28;20552;-67
2023/10/09 07:14:06;;;;;;;14.50;8.32;;;;;;;;;;5007990;28;20214;-67
2023/10/09 07:16:38;;;;;;;16.75;7.85;;;;;;;;;;5007013;28;20187;-67
2023/10/09 07:19:09;;;;;;;18.95;8.50;;;;;;;;;;5005670;28;20562;-68
2023/10/09 07:21:39;;;;;;;13.88;7.65;;;;;;;;;;5009373;28;20202;-68
2023/10/09 07:24:14;;;;;;;11.65;8.18;;;;;;;;;;5008413;28;20564;-68
2023/10/09 07:26:47;;;;;;;14.55;8.55;;;;;;;;;;5011024;28;20685;-67
2023/10/09 07:29:21;;;;;;;13.23;6.90;;;;;;;;;;5008084;28;20226;-67
2023/10/09 07:31:47;;;;;;;11.50;7.93;;;;;;;;;;5005662;28;20182;-67
2023/10/09 07:37:03;;;;;;;10.15;7.32;;;;;;;;;;5010929;28;20225;-68
2023/10/09 07:39:34;;;;;;;14.40;8.23;;;;;;;;;;5012339;28;20167;-67
2023/10/09 07:42:15;;;;;;;18.13;9.02;;;;;;;;;;5009153;28;20229;-67
2023/10/09 07:44:42;;;;;;;19.88;8.73;;;;;;;;;;5005911;28;20551;-68
2023/10/09 07:47:17;;;;;;;18.63;8.60;;;;;;;;;;5010696;28;20294;-67
2023/10/09 07:49:48;;;;;;;15.63;8.40;;;;;;;;;;5007898;28;20181;-68
2023/10/09 07:52:13;;;;;;;18.02;7.68;;;;;;;;;;5014702;28;20175;-66
2023/10/09 07:54:49;;;;;;;13.07;7.95;;;;;;;;;;5007542;28;20236;-67
2023/10/09 07:57:17;;;;;;;18.30;8.57;;;;;;;;;;5008510;28;20273;-68
2023/10/09 08:02:31;;;;;;;16.30;8.02;;;;;;;;;;4989266;28;20689;-68
2023/10/09 08:05:04;;;;;;;15.65;8.05;;;;;;;;;;5004754;28;20621;-68
2023/10/09 08:07:35;;;;;;;14.27;8.25;;;;;;;;;;5009254;28;20171;-68
2023/10/09 08:17:50;;;;;;;12.85;8.30;;;;;;;;;;5008374;28;20179;-69
2023/10/09 08:20:17;;;;;;;12.38;7.28;;;;;;;;;;5012249;28;20178;-67
2023/10/09 08:22:52;;;;;;;16.92;7.88;;;;;;;;;;5013240;28;20669;-68
2023/10/09 08:25:26;;;;;;;16.05;8.00;;;;;;;;;;5020713;22;20718;-65
2023/10/09 08:27:55;;;;;;;13.95;7.78;;;;;;;;;;4994221;28;20281;-66
2023/10/09 08:35:50;;;;;;;14.63;7.13;;;;;;;;;;4989849;28;20227;-67
2023/10/09 08:38:23;;;;;;;14.75;7.18;;;;;;;;;;4994842;28;20212;-66
2023/10/09 08:40:50;;;;;;;13.38;6.28;;;;;;;;;;4990682;28;20241;-67
2023/10/09 08:43:17;;;;;;;16.90;7.45;;;;;;;;;;4993485;28;20223;-66
2023/10/09 08:45:52;;;;;;;17.17;7.85;;;;;;;;;;4992061;28;20230;-64
2023/10/09 08:48:18;;;;;;;15.38;6.95;;;;;;;;;;4993556;28;20209;-65
2023/10/09 08:50:44;;;;;;;15.38;7.38;;;;;;;;;;4992923;28;20208;-66
2023/10/09 08:53:10;;;;;;;10.85;6.40;;;;;;;;;;4992064;28;20188;-67
2023/10/09 08:55:39;;;;;;;16.40;7.15;;;;;;;;;;4994081;28;20207;-66
2023/10/09 08:58:17;;;;;;;12.68;5.70;;;;;;;;;;4994362;28;20828;-65
2023/10/09 09:00:45;;;;;;;9.95;6.38;;;;;;;;;;4993576;28;20191;-66
2023/10/09 09:03:12;;;;;;;11.15;6.75;;;;;;;;;;4992338;28;20644;-65
2023/10/09 09:05:37;;;;;;;11.90;5.95;;;;;;;;;;4988637;28;20211;-65
2023/10/09 09:08:02;;;;;;;12.27;6.60;;;;;;;;;;4991750;28;20655;-65
2023/10/09 09:10:35;;;;;;;10.30;6.63;;;;;;;;;;4991747;28;20273;-66
2023/10/09 09:13:03;;;;;;;10.18;7.25;;;;;;;;;;4991509;28;20172;-66
2023/10/09 09:15:28;;;;;;;11.20;6.38;;;;;;;;;;4992340;28;20207;-66
2023/10/09 09:18:06;;;;;;;11.52;6.28;;;;;;;;;;4991281;28;20187;-65
2023/10/09 09:20:40;;;;;;;15.05;7.05;;;;;;;;;;4992542;28;20179;-66
2023/10/09 09:23:08;;;;;;;12.63;6.15;;;;;;;;;;4990520;28;20568;-66
2023/10/09 09:25:44;;;;;;;15.32;7.15;;;;;;;;;;4991074;28;20296;-64
2023/10/09 09:28:12;;;;;;;8.90;6.18;;;;;;;;;;4990331;28;20179;-67
2023/10/09 09:30:38;;;;;;;9.45;5.95;;;;;;;;;;4991105;28;20172;-65
2023/10/09 09:33:20;;;;;;;11.10;5.90;;;;;;;;;;4992118;28;20186;-65
2023/10/09 09:36:04;;;;;;;11.25;5.25;;;;;;;;;;4993082;28;20214;-65
2023/10/09 09:38:47;;;;;;;9.65;4.60;;;;;;;;;;4992461;28;20187;-65
2023/10/09 09:41:13;;;;;;;12.50;5.20;;;;;;;;;;4989066;28;20306;-66
2023/10/09 09:43:40;;;;;;;9.45;5.53;;;;;;;;;;4992940;28;20307;-66
2023/10/09 09:46:10;;;;;;;14.05;6.05;;;;;;;;;;4988379;28;20234;-66
2023/10/09 09:48:45;;;;;;;9.02;5.80;;;;;;;;;;5004820;28;20639;-65
2023/10/09 09:51:13;;;;;;;12.35;6.00;;;;;;;;;;4991769;28;20241;-65
2023/10/09 09:53:38;;;;;;;10.88;5.38;;;;;;;;;;4989811;28;20263;-66
2023/10/09 09:56:04;;;;;;;12.43;5.10;;;;;;;;;;4991256;28;20221;-65
2023/10/09 09:58:41;;;;;;;10.63;5.15;;;;;;;;;;4991903;28;20179;-66
2023/10/09 10:01:16;;;;;;;12.18;5.18;;;;;;;;;;4992589;28;20207;-65
2023/10/09 10:03:47;;;;;;;10.88;5.05;;;;;;;;;;4993179;28;20209;-66
2023/10/09 10:06:13;;;;;;;8.45;4.35;;;;;;;;;;4991341;28;20208;-66
2023/10/09 10:08:40;;;;;;;12.23;5.03;;;;;;;;;;4991034;28;20176;-65
2023/10/09 10:11:06;;;;;;;9.15;3.95;;;;;;;;;;4992323;28;20312;-65
2023/10/09 10:13:40;;;;;;;10.70;4.28;;;;;;;;;;4990849;28;20184;-66
2023/10/09 10:16:39;;;;;;;7.90;4.25;;;;;;;;;;4993224;28;20262;-65
2023/10/09 10:21:53;;;;;;;8.32;4.15;;;;;;;;;;4980392;28;20188;-65
2023/10/09 10:24:30;;;;;;;8.25;4.00;;;;;;;;;;4992160;28;20195;-66
2023/10/09 10:27:18;;;;;;;6.50;3.90;;;;;;;;;;4989768;28;20293;-66
2023/10/09 10:29:46;;;;;;;7.50;4.10;;;;;;;;;;4990982;28;20267;-66
2023/10/09 10:32:12;;;;;;;8.65;3.60;;;;;;;;;;4992490;28;20674;-66
2023/10/09 10:34:46;;;;;;;14.50;4.28;;;;;;;;;;4992242;28;20196;-66
2023/10/09 10:37:13;;;;;;;7.18;4.13;;;;;;;;;;4989590;28;20179;-66
2023/10/09 10:39:49;;;;;;;8.02;4.60;;;;;;;;;;4991702;28;20183;-67
2023/10/09 10:42:36;;;;;;;10.43;4.32;;;;;;;;;;4991169;28;20195;-67
2023/10/09 10:45:02;;;;;;;7.35;3.50;;;;;;;;;;4986979;28;20203;-67
2023/10/09 10:47:34;;;;;;;13.35;4.32;;;;;;;;;;4991058;28;20190;-65
2023/10/09 10:50:11;;;;;;;7.72;3.60;;;;;;;;;;4992574;28;20187;-64
2023/10/09 10:52:41;;;;;;;7.55;3.60;;;;;;;;;;4990761;28;20179;-65
2023/10/09 10:58:00;;;;;;;9.15;4.25;;;;;;;;;;4986636;28;20180;-66
2023/10/09 11:03:13;;;;;;;11.85;4.15;;;;;;;;;;4988425;28;20733;-65
2023/10/09 11:05:40;;;;;;;10.50;4.68;;;;;;;;;;4990477;28;20234;-65
2023/10/09 11:08:09;;;;;;;7.60;4.03;;;;;;;;;;4992209;28;20175;-66
2023/10/09 11:10:34;;;;;;;9.35;4.32;;;;;;;;;;4990053;28;20194;-66
2023/10/09 11:15:47;;;;;;;8.68;4.15;;;;;;;;;;4991234;28;20199;-66
2023/10/09 11:23:47;;;;;;;6.60;3.90;;;;;;;;;;4991627;28;20191;-66
2023/10/09 11:26:28;;;;;;;7.65;4.03;;;;;;;;;;4990399;28;20565;-65
2023/10/09 11:29:14;;;;;;;7.40;3.70;;;;;;;;;;4990850;28;20246;-65
2023/10/09 11:31:40;;;;;;;6.57;4.07;;;;;;;;;;4990156;28;20271;-66
2023/10/09 11:34:23;;;;;;;13.10;4.85;;;;;;;;;;4991062;28;20326;-65
2023/10/09 11:36:55;;;;;;;7.20;4.07;;;;;;;;;;4989642;28;20179;-66
2023/10/09 11:39:31;;;;;;;8.88;3.88;;;;;;;;;;4990601;28;20652;-65
2023/10/09 11:42:04;;;;;;;16.35;4.63;;;;;;;;;;4985716;28;20179;-66
2023/10/09 11:44:46;;;;;;;6.00;3.72;;;;;;;;;;4989269;28;20611;-65
2023/10/09 11:50:12;;;;;;;7.82;4.47;;;;;;;;;;4991512;28;20377;-65
2023/10/09 11:52:56;;;;;;;8.90;4.43;;;;;;;;;;4988816;28;20175;-65
2023/10/09 11:55:25;;;;;;;9.80;4.43;;;;;;;;;;4987832;28;20227;-66
2023/10/09 11:57:51;;;;;;;6.78;3.63;;;;;;;;;;4988610;28;20233;-67
2023/10/09 12:00:29;;;;;;;7.32;3.80;;;;;;;;;;4991098;28;20191;-66
2023/10/09 12:02:54;;;;;;;8.70;4.15;;;;;;;;;;4987390;28;20179;-66
2023/10/09 12:05:20;;;;;;;14.02;4.63;;;;;;;;;;4988182;28;20736;-67
2023/10/09 12:07:46;;;;;;;6.30;4.07;;;;;;;;;;4984700;28;20176;-66
2023/10/09 12:10:13;;;;;;;5.70;3.92;;;;;;;;;;4988254;28;20564;-65
2023/10/09 12:12:39;;;;;;;8.20;4.28;;;;;;;;;;4988388;28;20692;-66
2023/10/09 12:15:05;;;;;;;8.68;4.00;;;;;;;;;;4990711;28;20235;-66
2023/10/09 12:17:30;;;;;;;7.70;4.18;;;;;;;;;;4989231;28;20203;-67
2023/10/09 12:19:56;;;;;;;7.80;4.25;;;;;;;;;;4984694;28;20172;-65
2023/10/09 12:22:21;;;;;;;10.40;3.95;;;;;;;;;;4990286;28;20528;-66
2023/10/09 12:24:46;;;;;;;9.88;4.00;;;;;;;;;;4990245;28;20257;-67
2023/10/09 12:27:12;;;;;;;10.48;4.28;;;;;;;;;;4987923;28;20207;-65
2023/10/09 12:29:37;;;;;;;6.03;3.38;;;;;;;;;;4986689;28;20305;-66
2023/10/09 12:32:03;;;;;;;7.30;4.35;;;;;;;;;;4989350;28;20184;-66
2023/10/09 12:34:30;;;;;;;7.40;4.03;;;;;;;;;;4987005;28;20199;-66
2023/10/09 12:37:00;;;;;;;9.45;4.30;;;;;;;;;;4987125;28;20619;-66
2023/10/09 12:39:31;;;;;;;7.90;3.85;;;;;;;;;;4989100;28;20230;-67
2023/10/09 12:41:58;;;;;;;8.20;4.15;;;;;;;;;;4990068;28;20176;-66
2023/10/09 12:44:27;;;;;;;6.50;3.60;;;;;;;;;;4987388;28;20561;-66
2023/10/09 12:46:52;;;;;;;9.60;4.18;;;;;;;;;;4990029;28;20227;-67
2023/10/09 12:49:27;;;;;;;10.00;4.45;;;;;;;;;;4987222;28;20237;-64
2023/10/09 12:51:52;;;;;;;9.55;4.07;;;;;;;;;;4987505;28;20552;-65
2023/10/09 12:54:20;;;;;;;10.43;4.50;;;;;;;;;;4988599;28;20176;-66
2023/10/09 12:56:48;;;;;;;10.55;4.00;;;;;;;;;;4990066;28;20176;-67
2023/10/09 12:59:14;;;;;;;12.88;4.88;;;;;;;;;;4987353;28;20191;-65
2023/10/09 13:01:43;;;;;;;7.90;3.63;;;;;;;;;;4990097;28;20184;-66
2023/10/09 13:04:11;;;;;;;8.45;4.68;;;;;;;;;;4989253;28;20619;-66
2023/10/09 13:06:43;;;;;;;8.00;3.58;;;;;;;;;;4986509;28;20195;-65
2023/10/09 13:09:09;;;;;;;9.32;3.33;;;;;;;;;;4987180;28;20199;-65
2023/10/09 13:11:36;;;;;;;8.68;4.28;;;;;;;;;;4988222;28;20179;-66
2023/10/09 13:14:11;;;;;;;8.48;4.07;;;;;;;;;;4988572;28;20172;-66
2023/10/09 13:16:36;;;;;;;6.47;3.78;;;;;;;;;;4984261;28;20188;-67
2023/10/09 13:19:09;;;;;;;9.27;3.58;;;;;;;;;;4988889;28;20717;-65
2023/10/09 13:21:37;;;;;;;7.38;3.88;;;;;;;;;;4990009;28;20195;-65
2023/10/09 13:24:02;;;;;;;9.20;4.78;;;;;;;;;;4991982;28;20560;-65
2023/10/09 13:26:29;;;;;;;7.95;3.88;;;;;;;;;;4995822;28;20208;-65
2023/10/09 13:28:55;;;;;;;11.15;4.68;;;;;;;;;;4993707;28;20180;-65
2023/10/09 13:31:23;;;;;;;13.25;4.78;;;;;;;;;;4989860;28;20179;-64
2023/10/09 13:33:48;;;;;;;10.57;4.18;;;;;;;;;;4992503;28;20179;-65
2023/10/09 13:36:19;;;;;;;7.90;4.60;;;;;;;;;;4991406;28;20202;-66
2023/10/09 13:38:44;;;;;;;11.95;4.45;;;;;;;;;;4986784;28;20561;-65
2023/10/09 13:41:12;;;;;;;6.88;3.55;;;;;;;;;;4990929;28;20180;-66
2023/10/09 13:43:41;;;;;;;9.43;4.65;;;;;;;;;;4989778;28;20731;-66
2023/10/09 13:46:08;;;;;;;11.85;3.67;;;;;;;;;;4992790;28;20196;-66
2023/10/09 13:48:37;;;;;;;14.73;4.28;;;;;;;;;;4993317;28;20257;-66
2023/10/09 13:51:07;;;;;;;9.65;4.15;;;;;;;;;;4988702;28;20673;-65
2023/10/09 13:53:32;;;;;;;12.98;5.22;;;;;;;;;;5005946;28;20557;-66
2023/10/09 13:55:58;;;;;;;15.45;4.43;;;;;;;;;;4992002;28;20199;-66
2023/10/09 13:58:23;;;;;;;8.88;4.20;;;;;;;;;;4992347;28;20194;-65
2023/10/09 14:00:50;;;;;;;7.03;4.47;;;;;;;;;;4991512;28;20176;-66
2023/10/09 14:03:19;;;;;;;9.43;5.18;;;;;;;;;;4991562;28;20654;-65
2023/10/09 14:05:54;;;;;;;12.98;4.47;;;;;;;;;;4989989;28;20250;-66
2023/10/09 14:08:21;;;;;;;8.23;4.43;;;;;;;;;;4990299;28;20555;-67
2023/10/09 14:10:48;;;;;;;13.88;5.07;;;;;;;;;;4992202;28;20172;-67
2023/10/09 14:13:14;;;;;;;12.50;4.50;;;;;;;;;;4992990;28;20176;-66
2023/10/09 14:15:41;;;;;;;8.02;4.38;;;;;;;;;;4990009;28;20258;-67
2023/10/09 14:18:08;;;;;;;10.10;4.78;;;;;;;;;;4989458;28;20186;-66
2023/10/09 14:20:34;;;;;;;10.95;5.28;;;;;;;;;;4988501;28;20677;-67
2023/10/09 14:23:06;;;;;;;8.32;4.22;;;;;;;;;;4992109;28;20263;-64
2023/10/09 14:25:31;;;;;;;6.55;4.07;;;;;;;;;;5019466;23;20313;-67
2023/10/09 14:27:57;;;;;;;8.25;4.00;;;;;;;;;;5015003;28;20282;-67
2023/10/09 14:30:30;;;;;;;10.40;4.10;;;;;;;;;;5010627;28;20182;-68
2023/10/09 14:32:56;;;;;;;12.05;4.93;;;;;;;;;;5010997;28;20229;-67
2023/10/09 14:35:26;;;;;;;11.35;4.32;;;;;;;;;;5006121;28;20682;-68
2023/10/09 14:37:51;;;;;;;12.57;5.38;;;;;;;;;;4992288;28;20180;-69
2023/10/09 14:40:20;;;;;;;10.02;4.20;;;;;;;;;;4990455;28;20235;-69
2023/10/09 14:42:46;;;;;;;12.50;5.38;;;;;;;;;;4991619;28;20175;-68
2023/10/09 14:45:15;;;;;;;14.63;4.82;;;;;;;;;;4990905;28;20218;-68
2023/10/09 14:47:46;;;;;;;7.53;3.90;;;;;;;;;;4989959;28;20215;-68
2023/10/09 14:50:13;;;;;;;8.00;4.05;;;;;;;;;;4991572;28;20696;-68
2023/10/09 14:52:38;;;;;;;8.50;4.50;;;;;;;;;;4989643;28;20222;-68
2023/10/09 14:55:07;;;;;;;6.18;3.80;;;;;;;;;;4990217;28;20230;-68
2023/10/09 14:57:35;;;;;;;14.10;4.75;;;;;;;;;;4990429;28;20184;-68
2023/10/09 15:00:04;;;;;;;10.88;4.53;;;;;;;;;;4990655;28;20722;-69
2023/10/09 15:02:32;;;;;;;9.07;4.78;;;;;;;;;;4985911;28;20179;-67
2023/10/09 15:04:57;;;;;;;7.28;4.63;;;;;;;;;;4991357;28;20203;-67
2023/10/09 15:07:24;;;;;;;8.60;4.38;;;;;;;;;;4987713;28;20218;-67
2023/10/09 15:09:50;;;;;;;6.75;4.88;;;;;;;;;;4993295;28;20604;-68
2023/10/09 15:12:16;;;;;;;9.20;4.55;;;;;;;;;;4992454;28;20176;-67
2023/10/09 15:14:41;;;;;;;8.40;4.70;;;;;;;;;;4990772;28;20582;-67
2023/10/09 15:17:07;;;;;;;13.68;5.50;;;;;;;;;;4994476;28;20191;-67
2023/10/09 15:19:32;;;;;;;11.02;5.85;;;;;;;;;;4991393;28;20242;-67
2023/10/09 15:22:01;;;;;;;11.80;4.82;;;;;;;;;;4996619;28;20187;-67
2023/10/09 15:24:27;;;;;;;13.23;5.22;;;;;;;;;;4994620;28;20183;-67
2023/10/09 15:26:53;;;;;;;13.90;5.60;;;;;;;;;;4993474;28;20246;-67
2023/10/09 15:29:23;;;;;;;13.35;5.38;;;;;;;;;;4992162;28;20549;-69
2023/10/09 15:31:50;;;;;;;12.63;5.25;;;;;;;;;;4993609;28;20646;-68
2023/10/09 15:34:18;;;;;;;8.15;5.10;;;;;;;;;;4990787;28;20660;-67
2023/10/09 15:36:43;;;;;;;12.27;5.20;;;;;;;;;;5008840;28;20298;-67
2023/10/09 15:39:11;;;;;;;9.27;5.20;;;;;;;;;;4988949;28;20698;-68
2023/10/09 15:41:39;;;;;;;16.48;6.07;;;;;;;;;;4989106;28;20591;-67
2023/10/09 15:44:05;;;;;;;13.63;5.63;;;;;;;;;;4988497;28;20207;-67
2023/10/09 15:46:34;;;;;;;16.52;5.75;;;;;;;;;;4979514;28;20291;-67
2023/10/09 15:49:00;;;;;;;14.13;5.82;;;;;;;;;;4992118;28;21345;-67
2023/10/09 15:51:25;;;;;;;13.68;5.10;;;;;;;;;;4991538;28;20277;-68
2023/10/09 15:53:51;;;;;;;14.05;5.53;;;;;;;;;;4990798;28;20180;-68
2023/10/09 15:56:17;;;;;;;14.15;5.50;;;;;;;;;;4991204;28;20207;-67
2023/10/09 15:58:43;;;;;;;14.45;6.13;;;;;;;;;;4988753;28;20219;-67
2023/10/09 16:01:12;;;;;;;10.38;6.13;;;;;;;;;;4989340;28;20176;-68
2023/10/09 16:03:38;;;;;;;14.23;5.88;;;;;;;;;;4990563;28;20873;-68
2023/10/09 16:06:05;;;;;;;11.43;5.88;;;;;;;;;;4989394;28;20203;-68
2023/10/09 16:08:31;;;;;;;11.52;5.53;;;;;;;;;;4986877;28;20263;-68
2023/10/09 16:10:58;;;;;;;11.32;6.22;;;;;;;;;;4989474;28;20560;-67
2023/10/09 16:13:23;;;;;;;12.30;6.00;;;;;;;;;;4987253;28;20230;-68
2023/10/09 16:15:49;;;;;;;9.65;5.40;;;;;;;;;;4988583;28;20683;-68
2023/10/09 16:18:14;;;;;;;15.23;6.20;;;;;;;;;;4988291;28;20176;-68
2023/10/09 16:20:39;;;;;;;11.45;6.30;;;;;;;;;;4986721;28;20183;-67
2023/10/09 16:23:04;;;;;;;13.15;6.05;;;;;;;;;;4986859;28;20194;-70
2023/10/09 16:25:30;;;;;;;10.70;5.63;;;;;;;;;;4987683;28;20214;-68
2023/10/09 16:27:58;;;;;;;12.70;6.25;;;;;;;;;;4989217;28;20625;-68
2023/10/09 16:30:23;;;;;;;14.23;7.05;;;;;;;;;;4987163;28;20180;-68
2023/10/09 16:32:48;;;;;;;9.98;5.72;;;;;;;;;;4989904;28;20254;-68
2023/10/09 16:35:14;;;;;;;10.75;5.82;;;;;;;;;;4988307;28;20191;-68
2023/10/09 16:37:40;;;;;;;10.60;6.00;;;;;;;;;;4990669;28;20184;-68
2023/10/09 16:40:11;;;;;;;10.32;5.45;;;;;;;;;;4989592;28;20176;-68
2023/10/09 16:42:37;;;;;;;12.07;6.18;;;;;;;;;;4989044;28;20179;-68